createdAt,value
2023-02-17T00:00:13.657Z,15.13
2023-02-17T00:02:40.787Z,17.63
2023-02-17T00:05:08.113Z,15.07
2023-02-17T00:07:35.548Z,16.80
2023-02-17T00:10:02.629Z,16.13
2023-02-17T00:12:29.736Z,19.67
2023-02-17T00:14:56.826Z,19.63
2023-02-17T00:17:23.888Z,16.27
2023-02-17T00:19:50.973Z,17.00
2023-02-17T00:22:18.025Z,19.13
2023-02-17T00:24:45.154Z,16.03
2023-02-17T00:27:12.304Z,15.23
2023-02-17T00:29:39.365Z,14.53
2023-02-17T00:32:06.625Z,18.43
2023-02-17T00:34:33.916Z,15.67
2023-02-17T00:37:00.945Z,15.27
2023-02-17T00:39:28.258Z,13.90
2023-02-17T00:41:55.507Z,16.90
2023-02-17T00:44:23.788Z,15.87
2023-02-17T00:46:51.195Z,13.93
2023-02-17T00:49:25.834Z,13.37
2023-02-17T00:51:53.330Z,14.43
2023-02-17T00:54:20.505Z,13.03
2023-02-17T00:56:47.653Z,14.63
2023-02-17T00:59:14.876Z,14.73
2023-02-17T01:01:42.016Z,14.70
2023-02-17T01:04:09.281Z,16.20
2023-02-17T01:06:37.337Z,19.10
2023-02-17T01:09:05.645Z,15.17
2023-02-17T01:11:34.146Z,13.47
2023-02-17T01:14:01.641Z,16.53
2023-02-17T01:16:35.801Z,13.00
2023-02-17T01:19:04.001Z,14.97
2023-02-17T01:21:31.711Z,13.60
2023-02-17T01:23:59.782Z,16.83
2023-02-17T01:26:28.228Z,13.43
2023-02-17T01:28:55.685Z,13.30
2023-02-17T01:31:23.515Z,13.43
2023-02-17T01:33:50.760Z,15.40
2023-02-17T01:36:18.883Z,14.90
2023-02-17T01:38:49.035Z,15.73
2023-02-17T01:41:17.762Z,15.27
2023-02-17T01:44:04.702Z,13.43
2023-02-17T01:46:35.675Z,15.43
2023-02-17T01:49:04.582Z,14.27
2023-02-17T01:51:36.802Z,15.43
2023-02-17T01:54:08.738Z,17.40
2023-02-17T01:56:38.954Z,14.97
2023-02-17T01:59:07.780Z,16.77
2023-02-17T02:01:35.348Z,19.03
2023-02-17T02:04:04.056Z,19.90
2023-02-17T02:06:31.719Z,17.20
2023-02-17T02:09:09.676Z,19.47
2023-02-17T02:11:36.987Z,20.57
2023-02-17T02:14:06.789Z,17.37
2023-02-17T02:16:39.342Z,18.77
2023-02-17T02:19:09.431Z,18.20
2023-02-17T02:21:49.700Z,19.10
2023-02-17T02:24:26.664Z,18.67
2023-02-17T02:27:03.035Z,18.57
2023-02-17T02:29:39.000Z,19.80
2023-02-17T02:32:24.612Z,20.97
2023-02-17T02:34:57.431Z,22.03
2023-02-17T02:37:33.099Z,24.37
2023-02-17T02:40:01.926Z,22.40
2023-02-17T02:42:29.202Z,22.90
2023-02-17T02:44:56.701Z,27.77
2023-02-17T02:47:42.323Z,23.57
2023-02-17T02:50:10.652Z,21.87
2023-02-17T02:52:43.501Z,20.83
2023-02-17T02:55:26.529Z,24.73
2023-02-17T02:57:58.334Z,25.43
2023-02-17T03:00:33.556Z,25.93
2023-02-17T03:03:06.219Z,23.57
2023-02-17T03:05:39.172Z,20.63
2023-02-17T03:08:12.994Z,18.50
2023-02-17T03:10:47.495Z,18.73
2023-02-17T03:13:14.731Z,18.83
2023-02-17T03:15:41.972Z,21.97
2023-02-17T03:18:09.108Z,14.43
2023-02-17T03:20:43.164Z,11.17
2023-02-17T03:23:10.246Z,11.90
2023-02-17T03:25:37.634Z,9.40
2023-02-17T03:28:04.810Z,9.50
2023-02-17T03:30:31.922Z,11.43
2023-02-17T03:32:59.041Z,8.60
2023-02-17T03:35:26.078Z,7.67
2023-02-17T03:37:53.156Z,10.77
2023-02-17T03:40:20.249Z,10.00
2023-02-17T03:42:47.348Z,9.83
2023-02-17T03:45:14.397Z,8.10
2023-02-17T03:47:41.503Z,9.50
2023-02-17T03:50:09.118Z,13.80
2023-02-17T03:52:36.215Z,9.33
2023-02-17T03:55:03.334Z,8.93
2023-02-17T03:57:31.827Z,8.27
2023-02-17T03:59:58.867Z,7.63
2023-02-17T04:02:25.942Z,8.10
2023-02-17T04:04:53.002Z,10.50
2023-02-17T04:07:20.071Z,8.07
2023-02-17T04:09:47.116Z,9.10
2023-02-17T04:12:14.182Z,8.93
2023-02-17T04:14:41.256Z,9.63
2023-02-17T04:17:08.477Z,8.17
2023-02-17T04:19:35.579Z,10.07
2023-02-17T04:22:02.658Z,9.80
2023-02-17T04:24:29.761Z,10.27
2023-02-17T04:26:56.830Z,8.63
2023-02-17T04:29:23.900Z,8.90
2023-02-17T04:31:51.073Z,9.03
2023-02-17T04:34:18.202Z,9.43
2023-02-17T04:36:45.313Z,11.43
2023-02-17T04:39:12.564Z,11.90
2023-02-17T04:41:39.687Z,11.53
2023-02-17T04:44:06.732Z,9.33
2023-02-17T04:46:33.870Z,9.63
2023-02-17T04:49:00.947Z,9.77
2023-02-17T04:51:28.020Z,12.83
2023-02-17T04:53:55.157Z,11.33
2023-02-17T04:56:22.192Z,8.73
2023-02-17T04:58:49.263Z,8.73
2023-02-17T05:01:16.338Z,7.80
2023-02-17T05:03:43.439Z,10.67
2023-02-17T05:06:10.519Z,9.93
2023-02-17T05:08:37.588Z,9.47
2023-02-17T05:11:04.779Z,9.20
2023-02-17T05:13:33.230Z,8.87
2023-02-17T05:16:00.444Z,9.27
2023-02-17T05:18:27.584Z,10.67
2023-02-17T05:20:54.669Z,8.63
2023-02-17T05:23:21.856Z,9.50
2023-02-17T05:25:49.120Z,10.77
2023-02-17T05:28:16.184Z,9.73
2023-02-17T05:30:43.255Z,9.70
2023-02-17T05:33:10.366Z,9.77
2023-02-17T05:35:37.432Z,10.97
2023-02-17T05:38:04.530Z,21.43
2023-02-17T05:40:31.657Z,125.43
2023-02-17T05:42:58.727Z,56.73
2023-02-17T05:45:25.798Z,12.90
2023-02-17T05:47:52.859Z,14.70
2023-02-17T05:50:19.909Z,9.30
2023-02-17T05:52:46.976Z,8.13
2023-02-17T05:55:14.558Z,8.17
2023-02-17T05:57:41.626Z,9.03
2023-02-17T06:00:09.267Z,8.77
2023-02-17T06:02:36.356Z,9.97
2023-02-17T06:05:03.535Z,7.60
2023-02-17T06:07:30.711Z,7.50
2023-02-17T06:09:57.863Z,7.77
2023-02-17T06:12:25.150Z,7.87
2023-02-17T06:14:52.296Z,6.67
2023-02-17T06:17:19.358Z,8.60
2023-02-17T06:19:46.432Z,8.93
2023-02-17T06:22:13.507Z,8.63
2023-02-17T06:24:40.578Z,7.30
2023-02-17T06:27:07.631Z,7.70
2023-02-17T06:29:34.732Z,7.97
2023-02-17T06:32:01.924Z,6.77
2023-02-17T06:34:29.034Z,6.73
2023-02-17T06:36:56.668Z,9.47
2023-02-17T06:39:23.744Z,6.20
2023-02-17T06:41:50.878Z,7.70
2023-02-17T06:44:17.961Z,8.03
2023-02-17T06:46:46.861Z,6.60
2023-02-17T06:49:14.418Z,6.50
2023-02-17T06:51:41.456Z,7.37
2023-02-17T06:54:09.295Z,7.20
2023-02-17T06:56:36.494Z,6.70
2023-02-17T06:59:03.751Z,6.63
2023-02-17T07:01:30.947Z,7.33
2023-02-17T07:03:58.099Z,8.87
2023-02-17T07:06:25.412Z,7.83
2023-02-17T07:08:52.671Z,6.93
2023-02-17T07:11:20.188Z,9.13
2023-02-17T07:13:47.464Z,7.43
2023-02-17T07:16:15.160Z,7.53
2023-02-17T07:18:42.412Z,8.60
2023-02-17T07:21:09.821Z,7.80
2023-02-17T07:23:37.134Z,7.27
2023-02-17T07:26:05.840Z,7.20
2023-02-17T07:28:33.143Z,6.90
2023-02-17T07:31:05.620Z,6.37
2023-02-17T07:33:33.088Z,7.33
2023-02-17T07:36:00.239Z,6.90
2023-02-17T07:38:27.322Z,6.30
2023-02-17T07:40:54.398Z,5.97
2023-02-17T07:43:21.444Z,7.23
2023-02-17T07:45:48.563Z,9.73
2023-02-17T07:48:15.757Z,6.87
2023-02-17T07:50:42.848Z,8.40
2023-02-17T07:53:09.977Z,7.13
2023-02-17T07:55:37.126Z,7.50
2023-02-17T07:58:04.220Z,7.37
2023-02-17T08:00:31.274Z,6.43
2023-02-17T08:02:58.348Z,10.13
2023-02-17T08:05:25.480Z,7.37
2023-02-17T08:08:12.526Z,6.30
2023-02-17T08:10:58.358Z,8.27
2023-02-17T08:13:26.594Z,7.13
2023-02-17T08:15:53.691Z,7.57
2023-02-17T08:18:20.755Z,6.73
2023-02-17T08:20:47.946Z,9.27
2023-02-17T08:23:14.999Z,6.60
2023-02-17T08:25:42.083Z,6.87
2023-02-17T08:28:09.147Z,6.73
2023-02-17T08:30:38.274Z,8.40
2023-02-17T08:33:06.144Z,8.70
2023-02-17T08:35:33.229Z,8.50
2023-02-17T08:38:00.294Z,7.10
2023-02-17T08:40:27.441Z,6.47
2023-02-17T08:42:54.502Z,6.87
2023-02-17T08:45:21.622Z,7.93
2023-02-17T08:47:50.909Z,8.97
2023-02-17T08:50:19.978Z,6.83
2023-02-17T08:52:47.412Z,7.30
2023-02-17T08:55:15.146Z,7.07
2023-02-17T08:57:42.238Z,6.93
2023-02-17T09:00:09.815Z,9.07
2023-02-17T09:02:37.453Z,8.90
2023-02-17T09:05:06.068Z,7.57
2023-02-17T09:07:33.649Z,7.30
2023-02-17T09:10:01.188Z,7.57
2023-02-17T09:12:28.266Z,8.63
2023-02-17T09:14:55.376Z,5.70
2023-02-17T09:17:22.469Z,5.93
2023-02-17T09:19:49.631Z,6.83
2023-02-17T09:22:30.749Z,5.80
2023-02-17T09:24:58.971Z,5.17
2023-02-17T09:27:26.026Z,5.30
2023-02-17T09:29:53.099Z,6.33
2023-02-17T09:32:20.301Z,5.17
2023-02-17T09:34:53.379Z,4.80
2023-02-17T09:37:20.583Z,5.33
2023-02-17T09:39:48.535Z,4.63
2023-02-17T09:42:22.794Z,4.37
2023-02-17T09:44:52.246Z,4.37
2023-02-17T09:47:21.382Z,4.57
2023-02-17T09:49:54.322Z,5.57
2023-02-17T09:52:24.270Z,4.57
2023-02-17T09:55:04.197Z,4.80
2023-02-17T09:57:34.844Z,3.30
2023-02-17T10:00:05.727Z,4.47
2023-02-17T10:02:36.037Z,3.70
2023-02-17T10:05:06.339Z,3.33
2023-02-17T10:07:35.743Z,3.33
2023-02-17T10:10:10.844Z,4.97
2023-02-17T10:12:49.561Z,3.67
2023-02-17T10:15:22.726Z,3.90
2023-02-17T10:17:56.457Z,3.47
2023-02-17T10:20:29.363Z,3.47
2023-02-17T10:23:00.458Z,2.90
2023-02-17T10:25:46.025Z,3.53
2023-02-17T10:28:23.315Z,3.67
2023-02-17T10:30:59.263Z,3.53
2023-02-17T10:33:29.466Z,3.80
2023-02-17T10:36:15.088Z,4.33
2023-02-17T10:38:42.125Z,3.47
2023-02-17T10:41:11.837Z,3.80
2023-02-17T10:43:38.952Z,4.07
2023-02-17T10:46:08.482Z,3.47
2023-02-17T10:48:41.295Z,3.93
2023-02-17T10:51:08.457Z,4.13
2023-02-17T10:53:38.403Z,3.63
2023-02-17T10:56:08.863Z,4.77
2023-02-17T10:58:39.202Z,3.57
2023-02-17T11:01:07.492Z,2.90
2023-02-17T11:03:36.860Z,3.67
2023-02-17T11:06:05.641Z,3.30
2023-02-17T11:08:46.110Z,5.17
2023-02-17T11:11:19.424Z,3.77
2023-02-17T11:13:57.583Z,4.03
2023-02-17T11:16:39.958Z,3.50
2023-02-17T11:19:08.100Z,3.90
2023-02-17T11:21:36.268Z,4.07
2023-02-17T11:24:06.683Z,4.17
2023-02-17T11:26:36.215Z,3.93
2023-02-17T11:29:09.401Z,3.50
2023-02-17T11:31:36.691Z,3.10
2023-02-17T11:34:14.171Z,3.33
2023-02-17T11:36:41.588Z,3.53
2023-02-17T11:39:19.235Z,4.47
2023-02-17T11:41:46.344Z,3.37
2023-02-17T11:44:22.882Z,3.33
2023-02-17T11:46:53.325Z,3.70
2023-02-17T11:49:38.333Z,3.80
2023-02-17T11:52:22.506Z,3.17
2023-02-17T11:55:05.857Z,2.77
2023-02-17T11:57:39.220Z,4.47
2023-02-17T12:00:06.258Z,3.57
2023-02-17T12:02:42.421Z,3.83
2023-02-17T12:05:09.471Z,3.70
2023-02-17T12:07:42.594Z,2.60
2023-02-17T12:10:32.723Z,3.80
2023-02-17T12:13:20.781Z,2.90
2023-02-17T12:16:06.578Z,2.10
2023-02-17T12:18:39.654Z,2.33
2023-02-17T12:21:15.515Z,4.53
2023-02-17T12:23:45.321Z,2.17
2023-02-17T12:26:18.331Z,2.77
2023-02-17T12:28:45.403Z,2.70
2023-02-17T12:31:31.321Z,3.33
2023-02-17T12:34:10.906Z,3.23
2023-02-17T12:36:39.311Z,3.37
2023-02-17T12:39:16.925Z,2.17
2023-02-17T12:41:48.845Z,2.50
2023-02-17T12:44:20.642Z,3.53
2023-02-17T12:46:49.501Z,3.07
2023-02-17T12:49:22.262Z,4.00
2023-02-17T12:51:55.458Z,2.90
2023-02-17T12:54:31.007Z,2.53
2023-02-17T12:57:03.519Z,4.83
2023-02-17T12:59:33.943Z,2.13
2023-02-17T13:02:02.762Z,3.07
2023-02-17T13:04:30.431Z,2.77
2023-02-17T13:07:04.756Z,3.27
2023-02-17T13:09:35.501Z,1.73
2023-02-17T13:12:18.170Z,2.87
2023-02-17T13:14:47.018Z,2.50
2023-02-17T13:17:23.378Z,2.43
2023-02-17T13:20:01.035Z,2.37
2023-02-17T13:22:28.172Z,2.27
2023-02-17T13:24:56.102Z,2.87
2023-02-17T13:27:23.169Z,2.30
2023-02-17T13:30:13.795Z,2.10
2023-02-17T13:32:41.114Z,2.37
2023-02-17T13:35:18.591Z,2.70
2023-02-17T13:37:46.822Z,2.27
2023-02-17T13:40:16.807Z,2.33
2023-02-17T13:42:48.508Z,2.77
2023-02-17T13:45:18.700Z,2.00
2023-02-17T13:47:47.212Z,1.40
2023-02-17T13:50:31.291Z,2.07
2023-02-17T13:52:58.611Z,1.37
2023-02-17T13:55:26.069Z,1.73
2023-02-17T13:57:58.059Z,1.60
2023-02-17T14:00:26.639Z,1.90
2023-02-17T14:03:14.010Z,2.37
2023-02-17T14:05:43.478Z,1.53
2023-02-17T14:08:29.249Z,2.43
2023-02-17T14:10:56.930Z,2.73
2023-02-17T14:13:24.493Z,3.23
2023-02-17T14:15:59.357Z,4.87
2023-02-17T14:18:35.390Z,1.80
2023-02-17T14:21:22.427Z,1.80
2023-02-17T14:23:52.156Z,1.93
2023-02-17T14:26:30.212Z,1.03
2023-02-17T14:28:58.696Z,1.27
2023-02-17T14:31:26.023Z,1.40
2023-02-17T14:33:58.100Z,1.70
2023-02-17T14:36:33.435Z,2.27
2023-02-17T14:39:01.433Z,1.47
2023-02-17T14:41:28.684Z,1.97
2023-02-17T14:43:56.216Z,1.33
2023-02-17T14:46:23.357Z,1.30
2023-02-17T14:48:50.969Z,1.43
2023-02-17T14:51:19.478Z,2.17
2023-02-17T14:53:46.871Z,1.47
2023-02-17T14:56:27.970Z,1.20
2023-02-17T14:58:55.354Z,1.20
2023-02-17T15:01:23.317Z,1.10
2023-02-17T15:03:50.876Z,2.90
2023-02-17T15:06:19.613Z,1.10
2023-02-17T15:08:49.244Z,1.97
2023-02-17T15:11:36.910Z,1.70
2023-02-17T15:14:04.519Z,1.77
2023-02-17T15:16:31.632Z,2.00
2023-02-17T15:18:58.986Z,2.83
2023-02-17T15:21:30.545Z,1.93
2023-02-17T15:23:58.294Z,1.47
2023-02-17T15:26:25.723Z,1.50
2023-02-17T15:28:52.874Z,1.53
2023-02-17T15:31:21.653Z,1.80
2023-02-17T15:33:59.636Z,1.47
2023-02-17T15:36:28.375Z,2.43
2023-02-17T15:38:55.744Z,2.20
2023-02-17T15:41:26.512Z,2.00
2023-02-17T15:43:55.351Z,1.87
2023-02-17T15:46:23.527Z,1.43
2023-02-17T15:48:50.641Z,2.43
2023-02-17T15:51:23.258Z,1.97
2023-02-17T15:53:50.324Z,1.50
2023-02-17T15:56:24.570Z,1.60
2023-02-17T15:58:51.985Z,1.63
2023-02-17T16:01:25.203Z,1.60
2023-02-17T16:03:52.327Z,1.30
2023-02-17T16:06:19.376Z,1.80
2023-02-17T16:08:46.465Z,1.40
2023-02-17T16:11:14.323Z,2.60
2023-02-17T16:13:42.051Z,1.87
2023-02-17T16:16:19.637Z,1.50
2023-02-17T16:18:47.578Z,1.40
2023-02-17T16:21:15.141Z,2.07
2023-02-17T16:23:42.720Z,1.90
2023-02-17T16:26:24.956Z,2.00
2023-02-17T16:28:52.131Z,1.40
2023-02-17T16:31:19.312Z,1.30
2023-02-17T16:33:46.605Z,2.10
2023-02-17T16:36:18.034Z,1.80
2023-02-17T16:38:45.730Z,1.37
2023-02-17T16:41:16.859Z,1.57
2023-02-17T16:43:44.057Z,4.37
2023-02-17T16:46:30.854Z,1.23
2023-02-17T16:48:58.619Z,1.27
2023-02-17T16:51:25.705Z,1.13
2023-02-17T16:53:53.092Z,2.13
2023-02-17T16:56:21.789Z,1.50
2023-02-17T16:58:48.974Z,1.70
2023-02-17T17:01:16.124Z,1.37
2023-02-17T17:03:43.662Z,1.53
2023-02-17T17:06:17.915Z,1.67
2023-02-17T17:08:45.001Z,2.33
2023-02-17T17:11:14.689Z,1.97
2023-02-17T17:13:41.730Z,1.60
2023-02-17T17:16:13.393Z,1.53
2023-02-17T17:18:40.561Z,1.53
2023-02-17T17:21:07.634Z,1.90
2023-02-17T17:23:34.755Z,1.73
2023-02-17T17:26:03.823Z,1.63
2023-02-17T17:28:30.875Z,2.60
2023-02-17T17:30:58.145Z,1.40
2023-02-17T17:33:25.189Z,1.60
2023-02-17T17:35:53.495Z,1.87
2023-02-17T17:38:20.574Z,1.50
2023-02-17T17:40:51.841Z,1.43
2023-02-17T17:43:20.334Z,1.73
2023-02-17T17:45:48.405Z,1.40
2023-02-17T17:48:16.151Z,1.30
2023-02-17T17:50:43.866Z,1.90
2023-02-17T17:53:11.231Z,1.97
2023-02-17T17:55:38.496Z,1.40
2023-02-17T17:58:05.643Z,1.30
2023-02-17T18:00:32.776Z,1.50
2023-02-17T18:02:59.874Z,2.13
2023-02-17T18:05:26.999Z,2.77
2023-02-17T18:07:54.166Z,1.67
2023-02-17T18:10:21.221Z,1.50
2023-02-17T18:12:48.719Z,1.33
2023-02-17T18:15:16.890Z,2.00
2023-02-17T18:17:44.077Z,1.90
2023-02-17T18:20:12.369Z,1.53
2023-02-17T18:22:39.502Z,2.37
2023-02-17T18:25:07.200Z,1.93
2023-02-17T18:27:41.652Z,1.90
2023-02-17T18:30:09.079Z,3.17
2023-02-17T18:32:36.187Z,2.10
2023-02-17T18:35:03.729Z,2.60
2023-02-17T18:37:31.011Z,2.93
2023-02-17T18:39:58.146Z,2.93
2023-02-17T18:42:25.204Z,2.23
2023-02-17T18:44:53.512Z,3.23
2023-02-17T18:47:21.177Z,2.43
2023-02-17T18:49:48.284Z,3.20
2023-02-17T18:52:15.373Z,3.33
2023-02-17T18:54:43.303Z,3.13
2023-02-17T18:57:10.427Z,2.90
2023-02-17T18:59:37.600Z,1.60
2023-02-17T19:02:05.723Z,1.57
2023-02-17T19:04:32.807Z,2.50
2023-02-17T19:07:09.156Z,1.33
2023-02-17T19:09:44.097Z,1.70
2023-02-17T19:12:13.518Z,1.43
2023-02-17T19:14:41.019Z,2.07
2023-02-17T19:17:09.089Z,34.40
2023-02-17T19:19:37.465Z,10.10
2023-02-17T19:22:08.127Z,2.73
2023-02-17T19:24:35.785Z,1.67
2023-02-17T19:27:02.848Z,1.93
2023-02-17T19:29:29.936Z,1.43
2023-02-17T19:32:00.471Z,1.70
2023-02-17T19:34:27.789Z,1.93
2023-02-17T19:36:54.869Z,1.87
2023-02-17T19:39:22.401Z,7.10
2023-02-17T19:41:49.460Z,3.63
2023-02-17T19:44:17.386Z,2.80
2023-02-17T19:46:44.472Z,2.87
2023-02-17T19:49:11.595Z,2.77
2023-02-17T19:51:38.850Z,2.70
2023-02-17T19:54:05.952Z,1.80
2023-02-17T19:56:33.759Z,3.13
2023-02-17T19:59:00.948Z,2.70
2023-02-17T20:01:29.518Z,2.40
2023-02-17T20:03:57.572Z,2.10
2023-02-17T20:06:27.653Z,2.23
2023-02-17T20:08:56.050Z,2.63
2023-02-17T20:11:23.182Z,2.23
2023-02-17T20:13:50.526Z,2.67
2023-02-17T20:16:18.016Z,2.93
2023-02-17T20:18:46.727Z,2.40
2023-02-17T20:21:15.215Z,2.37
2023-02-17T20:23:42.697Z,3.20
2023-02-17T20:26:11.475Z,64.10
2023-02-17T20:28:39.048Z,4.90
2023-02-17T20:31:08.926Z,2.63
2023-02-17T20:33:36.563Z,3.00
2023-02-17T20:36:05.208Z,2.43
2023-02-17T20:38:32.617Z,2.57
2023-02-17T20:41:00.545Z,3.63
2023-02-17T20:43:27.638Z,3.73
2023-02-17T20:45:54.869Z,3.43
2023-02-17T20:48:28.273Z,2.70
2023-02-17T20:50:55.844Z,2.97
2023-02-17T20:53:22.984Z,2.97
2023-02-17T20:55:50.062Z,3.10
2023-02-17T20:58:17.115Z,2.47
2023-02-17T21:00:44.320Z,3.23
2023-02-17T21:03:11.492Z,2.93
2023-02-17T21:05:38.588Z,2.57
2023-02-17T21:08:05.743Z,3.10
2023-02-17T21:10:33.888Z,2.30
2023-02-17T21:13:01.591Z,2.57
2023-02-17T21:15:28.707Z,2.43
2023-02-17T21:17:55.836Z,2.87
2023-02-17T21:20:23.142Z,2.90
2023-02-17T21:22:50.573Z,2.70
2023-02-17T21:25:17.725Z,3.57
2023-02-17T21:27:44.844Z,3.30
2023-02-17T21:30:13.007Z,2.73
2023-02-17T21:32:40.317Z,3.67
2023-02-17T21:35:09.362Z,4.20
2023-02-17T21:37:38.759Z,3.07
2023-02-17T21:40:07.112Z,3.73
2023-02-17T21:42:53.094Z,6.07
2023-02-17T21:45:20.340Z,2.87
2023-02-17T21:47:47.540Z,3.40
2023-02-17T21:50:15.291Z,18.13
2023-02-17T21:52:42.393Z,20.37
2023-02-17T21:55:09.438Z,3.60
2023-02-17T21:57:36.508Z,3.07
2023-02-17T22:00:04.399Z,3.00
2023-02-17T22:02:31.495Z,3.20
2023-02-17T22:04:58.541Z,3.90
2023-02-17T22:07:25.571Z,2.60
2023-02-17T22:09:52.663Z,2.67
2023-02-17T22:12:19.695Z,5.23
2023-02-17T22:14:47.022Z,2.17
2023-02-17T22:17:14.095Z,2.73
2023-02-17T22:19:41.177Z,3.63
2023-02-17T22:22:08.230Z,2.93
2023-02-17T22:24:35.558Z,1.93
2023-02-17T22:27:02.644Z,3.10
2023-02-17T22:29:29.721Z,2.60
2023-02-17T22:31:57.286Z,2.00
2023-02-17T22:34:26.102Z,2.57
2023-02-17T22:36:53.149Z,2.60
2023-02-17T22:39:20.221Z,3.23
2023-02-17T22:41:47.250Z,3.37
2023-02-17T22:44:14.331Z,2.27
2023-02-17T22:46:41.387Z,5.53
2023-02-17T22:49:08.470Z,2.00
2023-02-17T22:51:37.133Z,3.97
2023-02-17T22:54:04.782Z,1.70
2023-02-17T22:56:32.340Z,3.20
2023-02-17T22:59:01.509Z,5.03
2023-02-17T23:01:29.519Z,1.93
2023-02-17T23:03:56.628Z,3.00
2023-02-17T23:06:25.360Z,3.57
2023-02-17T23:08:52.928Z,1.90
2023-02-17T23:11:41.602Z,3.03
2023-02-17T23:14:08.860Z,4.33
2023-02-17T23:16:36.255Z,3.20
2023-02-17T23:19:05.963Z,4.47
2023-02-17T23:21:33.049Z,2.73
2023-02-17T23:24:00.121Z,4.47
2023-02-17T23:26:27.192Z,2.87
2023-02-17T23:28:54.253Z,3.53
2023-02-17T23:31:21.400Z,4.10
2023-02-17T23:33:48.478Z,3.83
2023-02-17T23:36:15.530Z,3.57
2023-02-17T23:38:42.565Z,3.40
2023-02-17T23:41:10.987Z,1.93
2023-02-17T23:43:38.081Z,4.00
2023-02-17T23:46:05.330Z,2.17
2023-02-17T23:48:32.479Z,1.70
2023-02-17T23:51:01.226Z,3.30
2023-02-17T23:53:28.459Z,4.13
2023-02-17T23:56:09.388Z,2.80
2023-02-17T23:58:36.661Z,2.03
